Time;durP1;ratioP1;P1;durP2;ratioP2;P2;SDS_P1;SDS_P2;PMS_P1;PMS_P2;Temp;Humidity;BMP_temperature;BMP_pressure;BME280_temperature;BME280_humidity;BME280_pressure;Samples;Min_cycle;Max_cycle;Signal;HPM_P1;HPM_P2
2022/03/14 00:01:37;;;;;;;;;14.00;13.67;;;;;10.28;85.92;101353.59;5075665;27;45669;-76
2022/03/14 00:04:03;;;;;;;;;16.33;13.00;;;;;10.14;85.44;101338.00;5075251;27;45499;-75
2022/03/14 00:06:29;;;;;;;;;13.00;13.00;;;;;10.26;86.38;101355.38;5075654;27;45861;-76
2022/03/14 00:08:57;;;;;;;;;16.00;14.00;;;;;10.23;85.69;101364.19;5075358;27;45446;-76
2022/03/14 00:11:24;;;;;;;;;18.67;15.33;;;;;10.18;85.36;101352.84;5075379;27;45678;-76
2022/03/14 00:13:50;;;;;;;;;14.67;13.00;;;;;10.21;84.19;101358.09;5074431;28;45517;-75
2022/03/14 00:16:25;;;;;;;;;16.67;14.00;;;;;10.27;84.60;101378.19;5075343;27;45415;-75
2022/03/14 00:18:53;;;;;;;;;17.67;14.00;;;;;10.24;84.75;101384.38;5075261;28;45564;-76
2022/03/14 00:21:21;;;;;;;;;15.33;15.00;;;;;10.24;85.11;101388.75;5075054;27;45510;-76
2022/03/14 00:23:47;;;;;;;;;13.33;12.33;;;;;10.25;84.20;101399.28;5075090;27;46162;-76
2022/03/14 00:26:12;;;;;;;;;10.67;10.67;;;;;10.25;85.00;101407.16;5074122;27;46558;-76
2022/03/14 00:28:38;;;;;;;;;21.67;13.67;;;;;10.25;83.94;101412.44;5074635;27;45577;-76
2022/03/14 00:31:03;;;;;;;;;6.00;6.00;;;;;10.33;83.63;101422.00;5074769;27;45898;-76
2022/03/14 00:33:29;;;;;;;;;12.33;12.33;;;;;10.22;84.90;101416.84;5074940;27;45961;-75
2022/03/14 00:35:56;;;;;;;;;12.00;11.33;;;;;10.21;84.58;101415.09;5074733;27;45380;-74
2022/03/14 00:38:23;;;;;;;;;11.00;11.00;;;;;10.26;84.83;101434.34;5074032;28;45844;-75
2022/03/14 00:40:50;;;;;;;;;16.00;14.00;;;;;10.20;85.76;101430.03;5074531;27;45541;-76
2022/03/14 00:43:15;;;;;;;;;13.00;10.67;;;;;10.20;85.48;101435.28;5074321;27;45887;-75
2022/03/14 00:45:41;;;;;;;;;15.00;12.00;;;;;10.24;84.59;101436.13;5074485;27;45415;-74
2022/03/14 00:48:06;;;;;;;;;8.00;8.00;;;;;10.20;84.20;101442.31;5074629;27;45927;-75
2022/03/14 00:50:31;;;;;;;;;10.67;10.67;;;;;10.18;85.34;101439.69;5074754;28;45844;-75
2022/03/14 00:52:57;;;;;;;;;11.67;9.00;;;;;10.18;85.42;101439.69;5074597;27;45464;-74
2022/03/14 00:55:22;;;;;;;;;10.33;10.33;;;;;10.23;84.61;101456.31;5074251;28;45423;-75
2022/03/14 00:57:47;;;;;;;;;11.00;11.00;;;;;10.27;83.93;101455.38;5077355;28;45436;-75
2022/03/14 01:00:13;;;;;;;;;10.33;10.33;;;;;10.12;84.45;101447.63;5078364;28;45494;-76
2022/03/14 01:02:38;;;;;;;;;13.33;10.00;;;;;10.11;83.60;101440.66;5078623;27;46463;-76
2022/03/14 01:05:04;;;;;;;;;14.33;12.67;;;;;10.25;84.38;101472.06;5078491;27;45423;-76
2022/03/14 01:07:30;;;;;;;;;10.00;7.67;;;;;10.13;83.51;101457.28;5078114;27;45283;-76
2022/03/14 01:09:55;;;;;;;;;7.33;4.33;;;;;10.20;83.73;101476.53;5077056;28;45429;-77
2022/03/14 01:12:20;;;;;;;;;10.67;9.00;;;;;10.11;83.99;101473.09;5078009;28;46475;-77
2022/03/14 01:14:46;;;;;;;;;11.00;9.67;;;;;10.20;84.53;101497.59;5077954;27;45470;-77
2022/03/14 01:17:11;;;;;;;;;11.33;8.33;;;;;10.15;83.73;101481.84;5078104;27;45319;-76
2022/03/14 01:19:38;;;;;;;;;12.33;10.33;;;;;10.22;83.98;101506.31;5078414;27;45339;-77
2022/03/14 01:22:10;;;;;;;;;15.00;13.33;;;;;10.20;83.78;101518.63;5078181;27;45448;-75
2022/03/14 01:24:38;;;;;;;;;10.00;9.67;;;;;10.11;83.77;101511.69;5077809;27;45356;-75
2022/03/14 01:27:04;;;;;;;;;11.67;8.33;;;;;10.12;84.27;101518.69;5078077;27;45336;-74
2022/03/14 01:29:30;;;;;;;;;18.33;12.67;;;;;10.04;84.37;101508.22;5078178;27;45523;-75
2022/03/14 01:31:55;;;;;;;;;14.00;9.33;;;;;10.06;84.84;101522.25;5077813;28;45457;-75
2022/03/14 01:34:20;;;;;;;;;12.00;12.00;;;;;10.06;84.15;101526.63;5076665;28;45458;-75
2022/03/14 01:36:46;;;;;;;;;12.67;12.67;;;;;9.92;84.34;101522.34;5077941;28;45351;-76
2022/03/14 01:39:11;;;;;;;;;13.00;13.00;;;;;9.99;84.74;101535.47;5077927;28;45498;-76
2022/03/14 01:41:37;;;;;;;;;14.67;10.33;;;;;9.96;84.30;101538.97;5077486;27;45436;-74
2022/03/14 01:44:03;;;;;;;;;15.33;12.33;;;;;9.92;84.14;101534.66;5077163;27;45432;-75
2022/03/14 01:46:28;;;;;;;;;14.33;12.33;;;;;9.90;83.47;101539.03;5078033;27;45376;-77
2022/03/14 01:48:53;;;;;;;;;14.33;13.00;;;;;9.86;84.06;101546.09;5077670;27;45331;-77
2022/03/14 01:51:20;;;;;;;;;17.00;15.33;;;;;9.84;84.30;101550.47;5077513;28;45577;-76
2022/03/14 01:53:46;;;;;;;;;15.33;14.00;;;;;9.86;83.90;101563.59;5077628;27;45256;-74
2022/03/14 01:56:12;;;;;;;;;14.67;14.67;;;;;9.80;84.23;101561.03;5077478;27;45175;-74
2022/03/14 01:58:39;;;;;;;;;13.67;12.67;;;;;9.71;84.31;101564.59;5077817;27;45245;-78
2022/03/14 02:01:05;;;;;;;;;15.33;13.33;;;;;9.60;84.94;101556.78;5076680;27;46559;-77
2022/03/14 02:03:30;;;;;;;;;14.00;14.00;;;;;9.53;84.55;101548.03;5077424;27;45360;-76
2022/03/14 02:05:56;;;;;;;;;14.00;13.00;;;;;9.56;85.10;101568.19;5077874;28;45401;-78
2022/03/14 02:08:22;;;;;;;;;13.00;13.00;;;;;9.49;84.93;101561.22;5077012;27;45787;-76
2022/03/14 02:10:47;;;;;;;;;20.33;17.00;;;;;9.47;85.51;101563.84;5077329;28;46063;-78
2022/03/14 02:13:13;;;;;;;;;23.33;16.33;;;;;9.45;85.19;101573.47;5077242;27;45273;-77
2022/03/14 02:15:39;;;;;;;;;26.33;14.67;;;;;9.34;85.62;101568.28;5077105;27;45979;-77
2022/03/14 02:18:06;;;;;;;;;22.00;16.67;;;;;9.34;85.14;101578.78;5078172;27;45302;-77
2022/03/14 02:20:32;;;;;;;;;17.00;17.00;;;;;9.36;85.84;101586.66;5080976;27;46082;-77
2022/03/14 02:22:57;;;;;;;;;18.00;15.33;;;;;9.26;85.37;101580.56;5080426;27;45285;-76
2022/03/14 02:25:23;;;;;;;;;15.67;14.00;;;;;9.22;86.60;101586.72;5080973;27;45170;-76
2022/03/14 02:27:50;;;;;;;;;17.33;15.33;;;;;9.22;85.70;101592.84;5081247;27;45518;-76
2022/03/14 02:30:16;;;;;;;;;14.00;13.67;;;;;9.22;86.77;101608.63;5080390;27;45373;-76
2022/03/14 02:32:42;;;;;;;;;15.33;13.67;;;;;8.92;86.51;101559.69;5080608;28;45376;-75
2022/03/14 02:35:08;;;;;;;;;17.33;13.33;;;;;9.16;86.09;101610.38;5080976;27;45307;-77
2022/03/14 02:37:35;;;;;;;;;17.33;14.33;;;;;9.16;86.59;101606.00;5081280;28;45331;-76
2022/03/14 02:40:00;;;;;;;;;14.33;14.33;;;;;9.11;87.15;101605.16;5080670;27;45777;-76
2022/03/14 02:42:26;;;;;;;;;18.67;15.33;;;;;8.82;87.24;101555.34;5080366;27;45317;-75
2022/03/14 02:44:51;;;;;;;;;24.00;18.00;;;;;9.08;87.27;101602.53;5080216;28;45290;-76
2022/03/14 02:47:17;;;;;;;;;18.33;16.33;;;;;9.08;87.12;101613.03;5080969;28;45288;-76
2022/03/14 02:49:42;;;;;;;;;16.33;14.00;;;;;8.99;86.41;101613.94;5080265;27;45445;-77
2022/03/14 02:52:08;;;;;;;;;15.67;13.67;;;;;8.97;87.14;101613.06;5080198;27;45344;-74
2022/03/14 02:54:33;;;;;;;;;17.00;13.00;;;;;8.97;87.01;101631.44;5080477;27;45316;-74
2022/03/14 02:56:59;;;;;;;;;17.33;14.33;;;;;8.93;86.85;101626.19;5080140;27;45335;-74
2022/03/14 02:59:25;;;;;;;;;21.00;14.00;;;;;8.86;86.71;101623.59;5079814;27;46461;-75
2022/03/14 03:01:50;;;;;;;;;13.00;12.00;;;;;8.80;86.63;101610.47;5080216;27;45445;-75
2022/03/14 03:04:15;;;;;;;;;15.67;15.67;;;;;8.79;87.58;101619.22;5080411;28;45265;-74
2022/03/14 03:06:42;;;;;;;;;12.67;12.00;;;;;8.79;87.58;101626.25;5080761;28;45340;-73
2022/03/14 03:09:08;;;;;;;;;19.67;13.00;;;;;8.79;87.46;101629.72;5079749;28;46266;-74
2022/03/14 03:11:34;;;;;;;;;14.67;12.00;;;;;8.79;87.35;101640.22;5080082;27;45400;-74
2022/03/14 03:14:01;;;;;;;;;6.00;6.00;;;;;8.74;87.02;101644.59;5080239;27;45383;-74
2022/03/14 03:16:26;;;;;;;;;14.33;10.33;;;;;8.69;87.39;101651.63;5080425;28;45222;-75
2022/03/14 03:18:52;;;;;;;;;14.33;11.67;;;;;8.72;87.09;101662.13;5080098;27;45962;-75
2022/03/14 03:21:18;;;;;;;;;13.33;12.33;;;;;8.60;86.88;101655.13;5079586;27;45334;-73
2022/03/14 03:23:43;;;;;;;;;18.00;13.33;;;;;8.65;87.85;101669.09;5079879;27;45320;-75
2022/03/14 03:26:09;;;;;;;;;13.33;12.00;;;;;8.56;87.74;101655.13;5080124;27;45222;-74
2022/03/14 03:28:38;;;;;;;;;12.67;12.00;;;;;8.68;86.86;101682.25;5079634;27;45470;-74
2022/03/14 03:31:18;;;;;;;;;14.00;12.67;;;;;8.64;88.08;101690.13;5079590;27;45272;-76
2022/03/14 03:33:44;;;;;;;;;13.00;12.67;;;;;8.62;86.96;101684.88;5059753;28;45273;-75
2022/03/14 03:36:10;;;;;;;;;11.00;11.00;;;;;8.45;87.23;101669.13;5060274;28;45387;-75
2022/03/14 03:38:36;;;;;;;;;11.67;11.00;;;;;8.46;87.03;101678.72;5078314;28;48419;-75
2022/03/14 03:41:03;;;;;;;;;13.00;12.00;;;;;8.61;87.08;101705.88;5079651;27;45298;-74
2022/03/14 03:43:28;;;;;;;;;13.33;12.00;;;;;8.59;87.52;101708.50;5079822;27;45309;-74
2022/03/14 03:45:54;;;;;;;;;10.67;10.67;;;;;8.57;86.94;101707.63;5079338;27;45886;-73
2022/03/14 03:48:21;;;;;;;;;11.33;10.67;;;;;8.55;86.77;101706.72;5079382;27;46359;-74
2022/03/14 03:50:48;;;;;;;;;13.00;11.00;;;;;8.52;87.21;101702.38;5078921;27;45569;-74
2022/03/14 03:53:13;;;;;;;;;12.00;12.00;;;;;8.41;88.16;101695.31;5079450;27;45474;-73
2022/03/14 03:55:38;;;;;;;;;8.33;8.33;;;;;8.40;87.85;101702.31;5079621;27;45484;-74
2022/03/14 03:58:04;;;;;;;;;14.00;10.67;;;;;8.42;87.37;101710.19;5079682;28;46090;-74
2022/03/14 04:00:30;;;;;;;;;14.00;11.33;;;;;8.37;88.14;101704.94;5079048;27;46044;-74
2022/03/14 04:02:56;;;;;;;;;12.33;10.33;;;;;8.41;87.52;101726.78;5079225;28;45930;-73
2022/03/14 04:05:27;;;;;;;;;11.67;11.67;;;;;8.35;87.20;101720.69;5079845;27;45393;-75
2022/03/14 04:07:58;;;;;;;;;11.00;11.00;;;;;8.39;88.33;101728.56;5079075;27;47505;-74
2022/03/14 04:10:27;;;;;;;;;11.33;9.00;;;;;8.34;88.22;101726.78;5078858;28;45462;-75
2022/03/14 04:12:53;;;;;;;;;12.67;11.00;;;;;8.39;87.72;101731.19;5079433;27;45254;-75
2022/03/14 04:15:22;;;;;;;;;15.67;14.67;;;;;8.41;88.58;101740.81;5079127;27;45255;-75
2022/03/14 04:17:47;;;;;;;;;16.67;15.33;;;;;8.26;87.91;101723.25;5078968;27;46559;-75
2022/03/14 04:20:13;;;;;;;;;20.67;20.67;;;;;8.31;88.52;101734.66;5072381;28;45400;-75
2022/03/14 04:22:40;;;;;;;;;23.67;18.33;;;;;8.31;88.29;101731.16;5070020;27;45278;-76
2022/03/14 04:25:07;;;;;;;;;13.33;13.33;;;;;8.33;87.98;101751.25;5079553;28;45393;-75
2022/03/14 04:27:33;;;;;;;;;21.00;18.00;;;;;8.36;87.91;101760.91;5078720;27;46709;-75
2022/03/14 04:29:58;;;;;;;;;17.67;16.00;;;;;8.32;88.05;101760.03;5078851;27;45210;-75
2022/03/14 04:32:24;;;;;;;;;16.33;15.00;;;;;8.33;88.24;101764.38;5078978;27;45604;-74
2022/03/14 04:34:50;;;;;;;;;16.33;12.00;;;;;8.28;87.63;101757.41;5078990;27;45411;-75
2022/03/14 04:37:16;;;;;;;;;19.67;15.67;;;;;8.26;87.96;101754.75;5078757;27;45586;-75
2022/03/14 04:39:41;;;;;;;;;18.00;11.00;;;;;8.33;88.08;101780.13;5078421;27;45402;-74
2022/03/14 04:42:08;;;;;;;;;15.67;12.33;;;;;8.34;87.98;101781.91;5078364;27;45429;-75
2022/03/14 04:44:34;;;;;;;;;15.67;14.00;;;;;8.32;87.18;101774.88;5079149;27;45371;-75
2022/03/14 04:47:00;;;;;;;;;21.67;18.00;;;;;8.34;87.44;101776.66;5078019;28;47306;-74
2022/03/14 04:49:26;;;;;;;;;95.00;86.25;;;;;8.44;87.29;101792.44;5078539;28;45229;-75
2022/03/14 04:51:54;;;;;;;;;12.00;8.67;;;;;8.49;87.42;101799.47;5078839;28;45229;-77
2022/03/14 04:54:19;;;;;;;;;16.33;16.33;;;;;8.56;86.59;101813.50;5078742;27;45358;-77
2022/03/14 04:56:45;;;;;;;;;11.33;11.33;;;;;8.56;86.39;101804.75;5078618;27;45263;-77
2022/03/14 04:59:11;;;;;;;;;19.67;18.33;;;;;8.49;87.31;101801.22;5078096;27;45343;-77
2022/03/14 05:01:36;;;;;;;;;15.00;10.33;;;;;8.58;87.12;101814.34;5088608;27;45319;-77
2022/03/14 05:04:02;;;;;;;;;12.00;9.00;;;;;8.73;86.82;101831.03;5099356;27;45291;-77
2022/03/14 05:06:28;;;;;;;;;9.67;8.00;;;;;8.77;86.69;101827.53;5098863;27;45286;-77
2022/03/14 05:08:54;;;;;;;;;12.00;11.67;;;;;8.81;86.28;101834.56;5098873;27;45407;-78
2022/03/14 05:11:19;;;;;;;;;14.33;12.00;;;;;8.88;85.52;101850.31;5098782;27;45230;-77
2022/03/14 05:13:45;;;;;;;;;12.00;11.67;;;;;8.62;84.87;101799.50;5099219;27;45435;-78
2022/03/14 05:16:10;;;;;;;;;14.33;11.33;;;;;8.91;86.04;101851.22;5087058;27;46482;-78
2022/03/14 05:18:36;;;;;;;;;12.00;11.00;;;;;8.94;85.98;101852.09;5078101;28;45315;-75
2022/03/14 05:21:01;;;;;;;;;10.00;7.00;;;;;8.99;85.75;101867.84;5078321;27;45551;-75
2022/03/14 05:23:28;;;;;;;;;10.67;8.67;;;;;8.97;84.92;101870.47;5078389;28;45295;-78
2022/03/14 05:25:54;;;;;;;;;14.33;10.33;;;;;8.94;85.45;101862.59;5078204;27;47407;-75
2022/03/14 05:28:19;;;;;;;;;13.33;10.67;;;;;8.95;84.69;101872.22;5077519;27;45324;-75
2022/03/14 05:30:44;;;;;;;;;10.67;8.67;;;;;8.80;84.79;101838.94;5077846;28;45463;-75
2022/03/14 05:33:10;;;;;;;;;12.00;7.33;;;;;9.04;84.99;101889.75;5078642;27;45438;-74
2022/03/14 05:35:35;;;;;;;;;10.67;8.67;;;;;9.00;84.96;101894.16;5077470;27;46401;-74
2022/03/14 05:38:01;;;;;;;;;11.33;10.00;;;;;9.01;84.44;101901.13;5077928;28;45416;-74
2022/03/14 05:40:27;;;;;;;;;20.00;12.00;;;;;8.99;85.42;101907.25;5077815;27;45498;-75
2022/03/14 05:42:52;;;;;;;;;10.33;7.33;;;;;8.97;84.68;101904.63;5077931;27;45458;-76
2022/03/14 05:45:20;;;;;;;;;12.33;11.00;;;;;8.98;85.09;101913.41;5078453;27;45352;-76
2022/03/14 05:47:46;;;;;;;;;11.00;9.00;;;;;8.95;85.24;101918.66;5078784;27;45319;-75
2022/03/14 05:50:11;;;;;;;;;10.00;8.33;;;;;9.00;84.67;101930.03;5077881;27;45185;-75
2022/03/14 05:52:37;;;;;;;;;14.33;11.33;;;;;8.92;85.34;101915.97;5077227;27;45457;-76
2022/03/14 05:55:05;;;;;;;;;13.00;11.00;;;;;8.98;84.73;101932.66;5076782;27;46647;-74
2022/03/14 05:57:31;;;;;;;;;13.33;9.67;;;;;8.97;85.05;101935.28;5077629;27;45313;-72
2022/03/14 05:59:57;;;;;;;;;12.33;10.00;;;;;9.01;84.70;101939.69;5077494;27;45360;-72
2022/03/14 06:02:24;;;;;;;;;16.33;11.33;;;;;9.03;85.24;101953.69;5096387;27;45436;-72
2022/03/14 06:04:50;;;;;;;;;12.33;10.67;;;;;9.07;85.25;101958.94;5097834;27;46426;-72
2022/03/14 06:07:19;;;;;;;;;16.67;9.67;;;;;9.13;84.53;101970.34;5098031;27;45178;-72
2022/03/14 06:09:45;;;;;;;;;12.67;11.00;;;;;9.08;84.69;101957.22;5095675;27;45213;-77
2022/03/14 06:12:11;;;;;;;;;10.67;9.33;;;;;9.05;84.97;101955.44;5077885;27;45526;-71
2022/03/14 06:14:36;;;;;;;;;12.33;12.33;;;;;8.88;84.83;101926.50;5076928;28;45539;-71
2022/03/14 06:17:02;;;;;;;;;16.00;11.00;;;;;9.03;85.22;101951.06;5077222;27;45349;-73
2022/03/14 06:19:27;;;;;;;;;11.67;9.67;;;;;9.03;84.31;101956.31;5077146;28;45408;-73
2022/03/14 06:21:53;;;;;;;;;14.33;13.00;;;;;9.17;84.58;101990.53;5077442;28;45431;-72
2022/03/14 06:24:18;;;;;;;;;13.67;11.00;;;;;9.15;84.70;101981.75;5076808;27;46415;-72
2022/03/14 06:26:44;;;;;;;;;11.00;9.33;;;;;9.29;83.98;102000.19;5076373;27;45403;-73
2022/03/14 06:29:10;;;;;;;;;13.33;11.67;;;;;9.20;83.90;101980.88;5077414;27;45329;-73
2022/03/14 06:31:35;;;;;;;;;13.00;11.00;;;;;9.27;83.54;101994.06;5077374;27;45264;-73
2022/03/14 06:34:01;;;;;;;;;13.67;11.00;;;;;9.18;83.40;101984.41;5076587;28;45445;-73
2022/03/14 06:36:28;;;;;;;;;11.33;10.00;;;;;9.26;83.01;102006.31;5076950;27;45403;-73
2022/03/14 06:38:58;;;;;;;;;10.67;10.33;;;;;9.18;83.04;101998.41;5076424;27;45328;-73
2022/03/14 06:41:24;;;;;;;;;15.00;12.00;;;;;9.19;83.09;102000.16;5077244;27;45446;-72
2022/03/14 06:43:52;;;;;;;;;13.00;9.33;;;;;9.19;82.91;102001.91;5076567;27;45360;-75
2022/03/14 06:46:18;;;;;;;;;16.00;9.33;;;;;9.25;82.94;102015.09;5076480;27;45466;-74
2022/03/14 06:48:44;;;;;;;;;10.67;9.00;;;;;9.21;82.86;102016.81;5076899;27;45315;-72
2022/03/14 06:51:10;;;;;;;;;14.00;11.67;;;;;9.00;82.74;101995.72;5076868;27;45232;-71
2022/03/14 06:53:36;;;;;;;;;18.00;15.33;;;;;9.07;83.02;102014.13;5076379;27;46812;-73
2022/03/14 06:56:02;;;;;;;;;21.00;15.00;;;;;9.18;83.09;102031.69;5081359;27;45341;-74
2022/03/14 06:58:29;;;;;;;;;16.33;11.67;;;;;9.21;82.52;102043.09;5097383;27;45469;-73
2022/03/14 07:00:56;;;;;;;;;11.67;8.33;;;;;9.16;82.77;102042.19;5097530;27;45335;-72
2022/03/14 07:03:21;;;;;;;;;8.00;8.00;;;;;9.13;82.50;102038.69;5096661;27;46516;-71
2022/03/14 07:05:46;;;;;;;;;10.33;7.33;;;;;9.21;82.44;102055.34;5100061;27;45558;-71
2022/03/14 07:08:13;;;;;;;;;9.00;9.00;;;;;9.20;82.14;102046.56;5100871;27;45258;-71
2022/03/14 07:10:38;;;;;;;;;14.67;11.67;;;;;9.22;82.30;102059.72;5085540;27;45521;-71
2022/03/14 07:13:03;;;;;;;;;7.67;5.00;;;;;9.23;82.13;102064.97;5080020;28;46026;-73
2022/03/14 07:15:29;;;;;;;;;6.67;6.67;;;;;9.28;82.25;102074.63;5079846;27;45403;-73
2022/03/14 07:17:55;;;;;;;;;17.67;14.00;;;;;8.95;82.26;102024.59;5080241;27;45302;-73
2022/03/14 07:20:23;;;;;;;;;16.33;13.33;;;;;9.23;82.61;102072.00;5080376;28;45498;-74
2022/03/14 07:22:50;;;;;;;;;6.67;5.67;;;;;9.22;82.61;102075.50;5079792;27;47376;-75
2022/03/14 07:25:23;;;;;;;;;13.00;8.33;;;;;9.23;82.43;102077.25;5078749;28;45520;-74
2022/03/14 07:27:49;;;;;;;;;13.33;13.00;;;;;9.17;83.06;102056.22;5079765;27;45384;-71
2022/03/14 07:30:15;;;;;;;;;8.33;5.00;;;;;9.38;83.00;102093.09;5080089;27;45327;-71
2022/03/14 07:32:40;;;;;;;;;8.00;5.67;;;;;9.39;82.27;102086.09;5079836;27;46450;-73
2022/03/14 07:35:07;;;;;;;;;11.00;5.33;;;;;9.40;82.14;102087.84;5080016;27;45321;-72
2022/03/14 07:37:32;;;;;;;;;10.33;7.67;;;;;9.46;82.14;102089.63;5080048;28;45228;-72
2022/03/14 07:39:57;;;;;;;;;5.00;5.00;;;;;9.35;82.16;102065.91;5080035;27;45329;-72
2022/03/14 07:42:24;;;;;;;;;30.00;28.33;;;;;9.55;81.98;102087.88;5079669;27;45423;-73
2022/03/14 07:44:49;;;;;;;;;9.33;6.00;;;;;9.68;81.64;102096.69;5079575;27;45466;-73
2022/03/14 07:47:15;;;;;;;;;11.33;5.67;;;;;9.73;81.47;102096.69;5078391;28;45330;-73
2022/03/14 07:49:40;;;;;;;;;9.00;6.00;;;;;9.89;80.89;102102.88;5079893;27;45349;-73
2022/03/14 07:52:07;;;;;;;;;7.67;6.00;;;;;10.00;80.92;102110.78;5079556;28;47017;-74
2022/03/14 07:54:32;;;;;;;;;7.33;7.33;;;;;10.09;80.07;102119.59;5079462;27;45379;-73
2022/03/14 07:56:58;;;;;;;;;8.25;6.75;;;;;10.08;79.98;102114.34;5079816;27;45330;-73
2022/03/14 07:59:23;;;;;;;;;6.00;6.00;;;;;10.20;79.66;102135.38;5079869;28;45380;-73
2022/03/14 08:01:49;;;;;;;;;8.00;6.00;;;;;10.23;79.52;102137.16;5079016;27;45478;-72
2022/03/14 08:04:14;;;;;;;;;7.00;4.67;;;;;10.08;79.01;102106.44;5079427;28;45341;-73
2022/03/14 08:06:42;;;;;;;;;9.67;7.00;;;;;10.37;79.17;102156.50;5077378;28;45365;-73
2022/03/14 08:09:11;;;;;;;;;8.00;5.00;;;;;10.42;79.33;102152.09;5079701;27;45171;-73
2022/03/14 08:11:38;;;;;;;;;5.33;5.00;;;;;10.73;78.66;102172.31;5078842;27;45371;-74
2022/03/14 08:14:07;;;;;;;;;8.67;8.33;;;;;10.90;77.47;102156.50;5079195;27;45327;-73
2022/03/14 08:16:33;;;;;;;;;8.00;6.00;;;;;11.10;77.52;102172.28;5077709;27;45466;-73
2022/03/14 08:18:59;;;;;;;;;7.67;5.00;;;;;11.37;77.46;102179.25;5078934;27;45296;-74
2022/03/14 08:21:25;;;;;;;;;8.33;6.00;;;;;11.47;76.55;102166.88;5079238;27;45430;-73
2022/03/14 09:19:48;;;;;;;;;4.00;2.33;;;;;14.31;60.41;102242.91;5041235;28;45864;-73
2022/03/14 09:22:13;;;;;;;;;8.33;7.00;;;;;13.93;61.35;102272.50;5075709;28;45325;-73
2022/03/14 09:24:39;;;;;;;;;9.67;6.67;;;;;13.45;62.54;102250.09;5075708;27;45391;-72
2022/03/14 09:27:05;;;;;;;;;11.67;9.00;;;;;13.32;64.00;102267.88;5075587;28;45379;-72
2022/03/14 09:29:31;;;;;;;;;3.67;3.67;;;;;13.30;63.90;102266.97;5074265;27;45873;-73
2022/03/14 09:31:57;;;;;;;;;7.00;7.00;;;;;13.34;64.02;102272.25;5075515;27;45567;-74
2022/03/14 09:34:22;;;;;;;;;13.00;8.00;;;;;13.43;64.25;102265.13;5075321;27;45410;-74
2022/03/14 09:36:48;;;;;;;;;11.00;8.00;;;;;13.65;64.13;102281.66;5074421;28;45701;-72
2022/03/14 09:39:15;;;;;;;;;9.67;6.67;;;;;14.12;63.58;102284.66;5074810;27;46383;-73
2022/03/14 09:41:41;;;;;;;;;7.67;7.67;;;;;14.40;62.32;102288.66;5075380;27;45698;-72
2022/03/14 09:44:10;;;;;;;;;10.33;6.00;;;;;14.44;61.90;102290.38;5074804;28;45697;-73
2022/03/14 09:46:39;;;;;;;;;6.00;5.33;;;;;15.25;59.77;102290.03;5073366;28;46678;-73
2022/03/14 09:49:09;;;;;;;;;8.33;8.00;;;;;16.31;58.53;102295.06;5074116;27;46589;-73
2022/03/14 09:51:39;;;;;;;;;7.00;7.00;;;;;16.17;56.92;102299.81;5055966;28;45443;-73
2022/03/14 09:54:09;;;;;;;;;7.67;7.67;;;;;15.56;57.73;102293.91;5074128;27;46990;-72
2022/03/14 09:56:36;;;;;;;;;10.00;7.33;;;;;15.07;58.29;102293.88;5074399;27;45766;-72
2022/03/14 09:59:03;;;;;;;;;11.67;11.67;;;;;14.73;59.38;102304.16;5074206;28;45460;-73
2022/03/14 10:01:29;;;;;;;;;13.67;9.00;;;;;14.18;59.92;102266.88;5074219;27;45482;-73
2022/03/14 10:03:57;;;;;;;;;10.33;8.33;;;;;13.96;60.58;102278.69;5073319;27;45450;-73
2022/03/14 10:06:23;;;;;;;;;9.00;6.67;;;;;14.05;60.76;102307.69;5064450;28;45430;-73
2022/03/14 10:08:48;;;;;;;;;8.33;8.00;;;;;13.94;61.31;102307.78;5074396;28;45772;-73
2022/03/14 10:11:14;;;;;;;;;10.33;8.67;;;;;14.49;61.57;102323.91;5074116;27;45384;-74
2022/03/14 10:13:39;;;;;;;;;8.33;6.67;;;;;14.95;59.73;102326.78;5074450;28;45393;-74
2022/03/14 10:16:06;;;;;;;;;9.00;6.00;;;;;15.54;59.16;102331.13;5074421;28;45478;-73
2022/03/14 10:18:39;;;;;;;;;10.67;8.00;;;;;16.43;59.32;102327.63;5074095;28;46446;-72
2022/03/14 10:21:06;;;;;;;;;7.00;5.00;;;;;18.16;54.75;102324.16;5073641;27;45429;-72
2022/03/14 10:23:43;;;;;;;;;10.00;5.00;;;;;19.78;52.09;102323.38;5074377;27;45418;-73
2022/03/14 10:26:16;;;;;;;;;4.00;4.00;;;;;20.83;48.23;102314.94;5074343;27;45710;-72
2022/03/14 10:28:48;;;;;;;;;4.75;4.50;;;;;21.61;44.74;102322.41;5074171;27;45396;-73
2022/03/14 10:31:26;;;;;;;;;2.67;2.67;;;;;21.56;45.02;102318.13;5073913;27;45506;-73
2022/03/14 10:33:52;;;;;;;;;5.67;3.00;;;;;22.07;43.36;102328.38;5073885;27;45396;-72
2022/03/14 10:36:42;;;;;;;;;4.67;4.67;;;;;21.96;42.44;102341.41;5074406;27;45494;-72
2022/03/14 10:39:25;;;;;;;;;10.00;5.33;;;;;21.16;43.27;102329.66;5073935;27;46289;-73
2022/03/14 10:42:10;;;;;;;;;5.33;5.00;;;;;20.45;44.12;102346.75;5077546;27;45463;-73
2022/03/14 10:44:38;;;;;;;;;6.67;6.67;;;;;20.08;44.37;102340.09;5077389;27;45858;-72
2022/03/14 10:47:06;;;;;;;;;6.67;5.00;;;;;20.09;45.49;102352.56;5077112;27;45455;-72
2022/03/14 10:49:36;;;;;;;;;4.00;4.00;;;;;19.72;45.33;102353.00;5076808;27;46320;-72
2022/03/14 10:52:06;;;;;;;;;5.00;3.00;;;;;19.37;45.82;102357.75;5077064;27;45743;-72
2022/03/14 10:54:34;;;;;;;;;5.33;5.00;;;;;18.98;45.50;102347.47;5077346;27;45399;-72
2022/03/14 10:57:17;;;;;;;;;6.00;4.00;;;;;18.74;47.19;102358.00;5077462;27;45304;-71
2022/03/14 10:59:47;;;;;;;;;6.00;4.33;;;;;18.45;47.16;102365.09;5077124;27;46701;-72
2022/03/14 11:02:17;;;;;;;;;8.00;5.00;;;;;18.28;48.30;102357.56;5076781;27;45442;-72
2022/03/14 11:04:47;;;;;;;;;9.00;5.00;;;;;18.19;48.32;102347.19;5077235;27;45407;-73
2022/03/14 11:07:14;;;;;;;;;4.67;3.67;;;;;18.09;47.81;102352.81;5077689;27;45425;-71
2022/03/14 11:09:50;;;;;;;;;5.00;3.33;;;;;17.96;48.16;102351.38;5076798;27;46416;-72
2022/03/14 11:12:18;;;;;;;;;3.33;3.00;;;;;17.75;48.21;102366.16;5077225;27;45841;-72
2022/03/14 11:14:54;;;;;;;;;5.33;3.33;;;;;17.32;48.26;102335.31;5077133;27;45423;-72
2022/03/14 11:17:22;;;;;;;;;5.33;5.00;;;;;17.41;48.78;102367.00;5076867;27;45609;-72
2022/03/14 11:19:48;;;;;;;;;3.00;3.00;;;;;17.29;49.99;102365.53;5076565;27;45677;-72
2022/03/14 11:22:15;;;;;;;;;6.67;5.00;;;;;17.14;49.44;102366.81;5077395;27;45558;-72
2022/03/14 11:24:49;;;;;;;;;13.67;12.00;;;;;17.00;49.44;102371.56;5077025;27;45398;-74
2022/03/14 11:27:18;;;;;;;;;7.33;5.67;;;;;16.79;50.06;102364.91;5077372;27;45719;-73
2022/03/14 11:29:46;;;;;;;;;4.67;3.67;;;;;16.54;50.14;102363.69;5076739;27;46176;-72
2022/03/14 11:32:13;;;;;;;;;6.33;4.00;;;;;16.45;49.75;102355.91;5076621;28;45612;-72
2022/03/14 11:34:40;;;;;;;;;3.00;3.00;;;;;16.34;51.05;102350.84;5076442;27;45444;-73
2022/03/14 11:37:05;;;;;;;;;4.00;3.00;;;;;15.86;50.63;102295.13;5077031;27;45367;-72
2022/03/14 11:39:32;;;;;;;;;4.33;3.67;;;;;15.99;50.52;102331.19;5075709;28;45797;-71
2022/03/14 11:41:59;;;;;;;;;5.33;4.67;;;;;15.99;51.04;102309.91;5076200;27;45416;-71
2022/03/14 11:44:25;;;;;;;;;5.00;4.00;;;;;16.19;50.81;102340.50;5076245;27;45515;-72
2022/03/14 11:46:53;;;;;;;;;4.00;4.00;;;;;16.25;50.27;102336.84;5077259;28;45310;-71
2022/03/14 11:49:19;;;;;;;;;6.50;3.50;;;;;16.34;49.09;102342.84;5076222;27;46811;-71
2022/03/14 11:51:47;;;;;;;;;4.67;3.33;;;;;16.31;48.99;102358.88;5074876;27;45420;-71
2022/03/14 11:54:14;;;;;;;;;3.00;2.00;;;;;16.30;49.17;102358.91;5076853;27;45815;-71
2022/03/14 11:57:00;;;;;;;;;4.25;3.25;;;;;16.14;50.45;102347.72;5076298;27;45470;-72
2022/03/14 11:59:31;;;;;;;;;2.67;2.00;;;;;16.00;50.27;102361.25;5075736;27;45759;-72
2022/03/14 12:01:58;;;;;;;;;7.00;4.00;;;;;15.86;50.40;102361.53;5076263;27;45376;-72
2022/03/14 12:04:29;;;;;;;;;3.75;2.00;;;;;15.67;50.40;102345.91;5076048;27;45468;-72
2022/03/14 12:06:57;;;;;;;;;4.75;2.75;;;;;15.73;50.51;102365.28;5076226;27;45498;-72
2022/03/14 12:09:26;;;;;;;;;2.67;2.67;;;;;15.70;49.98;102368.88;5075433;27;46417;-72
2022/03/14 12:11:56;;;;;;;;;4.00;2.33;;;;;15.61;50.75;102340.72;5076255;28;45452;-73
2022/03/14 12:14:43;;;;;;;;;3.00;1.25;;;;;15.78;49.78;102360.78;5076128;28;45783;-71